sensor_id;sensor_type;location;lat;lon;timestamp;temperature;humidity
3542;DHT22;1785;47.388;8.538;2024-02-26T00:00:40;11.00;99.90
3542;DHT22;1785;47.388;8.538;2024-02-26T00:03:07;11.10;99.90
3542;DHT22;1785;47.388;8.538;2024-02-26T00:05:33;11.20;99.90
3542;DHT22;1785;47.388;8.538;2024-02-26T00:07:59;11.30;99.90
3542;DHT22;1785;47.388;8.538;2024-02-26T00:10:25;11.30;99.90
3542;DHT22;1785;47.388;8.538;2024-02-26T00:12:51;11.30;99.90
3542;DHT22;1785;47.388;8.538;2024-02-26T00:15:18;11.30;99.90
3542;DHT22;1785;47.388;8.538;2024-02-26T00:17:44;11.00;99.90
3542;DHT22;1785;47.388;8.538;2024-02-26T00:20:11;11.00;99.90
3542;DHT22;1785;47.388;8.538;2024-02-26T00:22:37;10.80;99.90
3542;DHT22;1785;47.388;8.538;2024-02-26T00:25:04;10.40;99.90
3542;DHT22;1785;47.388;8.538;2024-02-26T00:27:31;10.50;99.90
3542;DHT22;1785;47.388;8.538;2024-02-26T00:29:57;10.60;99.90
3542;DHT22;1785;47.388;8.538;2024-02-26T00:32:23;10.40;99.90
3542;DHT22;1785;47.388;8.538;2024-02-26T00:34:50;10.10;99.90
3542;DHT22;1785;47.388;8.538;2024-02-26T00:37:16;9.70;99.90
3542;DHT22;1785;47.388;8.538;2024-02-26T00:39:42;9.70;99.90
3542;DHT22;1785;47.388;8.538;2024-02-26T00:42:08;10.00;99.90
3542;DHT22;1785;47.388;8.538;2024-02-26T00:44:34;9.90;99.90
3542;DHT22;1785;47.388;8.538;2024-02-26T00:47:00;9.50;99.90
3542;DHT22;1785;47.388;8.538;2024-02-26T00:49:28;9.20;99.90
3542;DHT22;1785;47.388;8.538;2024-02-26T00:51:54;9.50;99.90
3542;DHT22;1785;47.388;8.538;2024-02-26T00:54:21;9.90;99.90
3542;DHT22;1785;47.388;8.538;2024-02-26T00:56:47;10.30;99.90
3542;DHT22;1785;47.388;8.538;2024-02-26T00:59:13;10.40;99.90
3542;DHT22;1785;47.388;8.538;2024-02-26T01:01:39;10.40;99.90
3542;DHT22;1785;47.388;8.538;2024-02-26T01:04:05;10.30;99.90
3542;DHT22;1785;47.388;8.538;2024-02-26T01:06:32;10.20;99.90
3542;DHT22;1785;47.388;8.538;2024-02-26T01:08:58;10.30;99.90
3542;DHT22;1785;47.388;8.538;2024-02-26T01:11:24;10.20;99.90
3542;DHT22;1785;47.388;8.538;2024-02-26T01:13:50;10.20;99.90
3542;DHT22;1785;47.388;8.538;2024-02-26T01:16:21;10.30;99.90
3542;DHT22;1785;47.388;8.538;2024-02-26T01:18:48;10.30;99.90
3542;DHT22;1785;47.388;8.538;2024-02-26T01:21:14;10.10;99.90
3542;DHT22;1785;47.388;8.538;2024-02-26T01:23:41;10.10;99.90
3542;DHT22;1785;47.388;8.538;2024-02-26T01:26:08;10.40;99.90
3542;DHT22;1785;47.388;8.538;2024-02-26T01:28:34;10.50;99.90
3542;DHT22;1785;47.388;8.538;2024-02-26T01:31:00;10.60;99.90
3542;DHT22;1785;47.388;8.538;2024-02-26T01:33:26;10.70;99.90
3542;DHT22;1785;47.388;8.538;2024-02-26T01:35:52;10.80;99.90
3542;DHT22;1785;47.388;8.538;2024-02-26T01:38:19;10.80;99.90
3542;DHT22;1785;47.388;8.538;2024-02-26T01:40:45;10.80;99.90
3542;DHT22;1785;47.388;8.538;2024-02-26T01:43:12;10.80;99.90
3542;DHT22;1785;47.388;8.538;2024-02-26T01:45:38;10.90;99.90
3542;DHT22;1785;47.388;8.538;2024-02-26T01:48:05;10.80;99.90
3542;DHT22;1785;47.388;8.538;2024-02-26T01:50:31;10.80;99.90
3542;DHT22;1785;47.388;8.538;2024-02-26T01:53:00;10.80;99.90
3542;DHT22;1785;47.388;8.538;2024-02-26T01:55:26;10.50;99.90
3542;DHT22;1785;47.388;8.538;2024-02-26T01:57:53;10.60;99.90
3542;DHT22;1785;47.388;8.538;2024-02-26T02:00:20;10.40;99.90
3542;DHT22;1785;47.388;8.538;2024-02-26T02:02:47;10.40;99.90
3542;DHT22;1785;47.388;8.538;2024-02-26T02:05:15;10.30;99.90
3542;DHT22;1785;47.388;8.538;2024-02-26T02:07:41;10.10;99.90
3542;DHT22;1785;47.388;8.538;2024-02-26T02:10:08;10.10;99.90
3542;DHT22;1785;47.388;8.538;2024-02-26T02:12:35;10.00;99.90
3542;DHT22;1785;47.388;8.538;2024-02-26T02:15:05;10.10;99.90
3542;DHT22;1785;47.388;8.538;2024-02-26T02:17:32;10.30;99.90
3542;DHT22;1785;47.388;8.538;2024-02-26T02:19:58;10.40;99.90
3542;DHT22;1785;47.388;8.538;2024-02-26T02:22:25;10.50;99.90
3542;DHT22;1785;47.388;8.538;2024-02-26T02:24:52;10.40;99.90
3542;DHT22;1785;47.388;8.538;2024-02-26T02:27:19;10.40;99.90
3542;DHT22;1785;47.388;8.538;2024-02-26T02:29:46;10.40;99.90
3542;DHT22;1785;47.388;8.538;2024-02-26T02:32:13;10.10;99.90
3542;DHT22;1785;47.388;8.538;2024-02-26T02:34:40;10.10;99.90
3542;DHT22;1785;47.388;8.538;2024-02-26T02:37:07;10.20;99.90
3542;DHT22;1785;47.388;8.538;2024-02-26T02:39:33;10.50;99.90
3542;DHT22;1785;47.388;8.538;2024-02-26T02:41:59;10.60;99.90
3542;DHT22;1785;47.388;8.538;2024-02-26T02:44:26;10.50;99.90
3542;DHT22;1785;47.388;8.538;2024-02-26T02:46:52;10.60;99.90
3542;DHT22;1785;47.388;8.538;2024-02-26T02:49:18;10.50;99.90
3542;DHT22;1785;47.388;8.538;2024-02-26T02:51:45;10.50;99.90
3542;DHT22;1785;47.388;8.538;2024-02-26T02:54:11;10.40;99.90
3542;DHT22;1785;47.388;8.538;2024-02-26T02:56:38;10.50;99.90
3542;DHT22;1785;47.388;8.538;2024-02-26T02:59:04;10.60;99.90
3542;DHT22;1785;47.388;8.538;2024-02-26T03:01:30;10.60;99.90
3542;DHT22;1785;47.388;8.538;2024-02-26T03:03:56;10.50;99.90
3542;DHT22;1785;47.388;8.538;2024-02-26T03:06:22;10.60;99.90
3542;DHT22;1785;47.388;8.538;2024-02-26T03:08:50;10.60;99.90
3542;DHT22;1785;47.388;8.538;2024-02-26T03:11:16;10.50;99.90
3542;DHT22;1785;47.388;8.538;2024-02-26T03:13:43;10.40;99.90
3542;DHT22;1785;47.388;8.538;2024-02-26T03:16:09;10.40;99.90
3542;DHT22;1785;47.388;8.538;2024-02-26T03:18:35;10.50;99.90
3542;DHT22;1785;47.388;8.538;2024-02-26T03:21:04;10.50;99.90
3542;DHT22;1785;47.388;8.538;2024-02-26T03:23:30;10.40;99.90
3542;DHT22;1785;47.388;8.538;2024-02-26T03:25:58;10.30;99.90
3542;DHT22;1785;47.388;8.538;2024-02-26T03:28:24;10.50;99.90
3542;DHT22;1785;47.388;8.538;2024-02-26T03:30:51;10.50;99.90
3542;DHT22;1785;47.388;8.538;2024-02-26T03:33:17;10.60;99.90
3542;DHT22;1785;47.388;8.538;2024-02-26T03:35:43;10.70;99.90
3542;DHT22;1785;47.388;8.538;2024-02-26T03:38:09;10.50;99.90
3542;DHT22;1785;47.388;8.538;2024-02-26T03:40:35;10.20;99.90
3542;DHT22;1785;47.388;8.538;2024-02-26T03:43:02;10.30;99.90
3542;DHT22;1785;47.388;8.538;2024-02-26T03:45:30;10.20;99.90
3542;DHT22;1785;47.388;8.538;2024-02-26T03:47:57;10.10;99.90
3542;DHT22;1785;47.388;8.538;2024-02-26T03:50:23;10.20;99.90
3542;DHT22;1785;47.388;8.538;2024-02-26T03:52:49;9.90;99.90
3542;DHT22;1785;47.388;8.538;2024-02-26T03:55:15;9.50;99.90
3542;DHT22;1785;47.388;8.538;2024-02-26T03:57:44;9.40;99.90
3542;DHT22;1785;47.388;8.538;2024-02-26T04:00:11;9.30;99.90
3542;DHT22;1785;47.388;8.538;2024-02-26T04:02:37;9.10;99.90
3542;DHT22;1785;47.388;8.538;2024-02-26T04:05:05;9.10;99.90
3542;DHT22;1785;47.388;8.538;2024-02-26T04:07:35;9.10;99.90
3542;DHT22;1785;47.388;8.538;2024-02-26T04:10:01;9.10;99.90
3542;DHT22;1785;47.388;8.538;2024-02-26T04:12:30;9.20;99.90
3542;DHT22;1785;47.388;8.538;2024-02-26T04:14:56;9.20;99.90
3542;DHT22;1785;47.388;8.538;2024-02-26T04:17:22;9.30;99.90
3542;DHT22;1785;47.388;8.538;2024-02-26T04:19:49;9.20;99.90
3542;DHT22;1785;47.388;8.538;2024-02-26T04:22:15;9.20;99.90
3542;DHT22;1785;47.388;8.538;2024-02-26T04:24:41;9.20;99.90
3542;DHT22;1785;47.388;8.538;2024-02-26T04:27:08;9.20;99.90
3542;DHT22;1785;47.388;8.538;2024-02-26T04:29:34;9.10;99.90
3542;DHT22;1785;47.388;8.538;2024-02-26T04:32:00;9.40;99.90
3542;DHT22;1785;47.388;8.538;2024-02-26T04:34:27;9.40;99.90
3542;DHT22;1785;47.388;8.538;2024-02-26T04:36:53;9.30;99.90
3542;DHT22;1785;47.388;8.538;2024-02-26T04:39:20;9.40;99.90
3542;DHT22;1785;47.388;8.538;2024-02-26T04:41:46;9.80;99.90
3542;DHT22;1785;47.388;8.538;2024-02-26T04:44:12;10.00;99.90
3542;DHT22;1785;47.388;8.538;2024-02-26T04:46:38;10.00;99.90
3542;DHT22;1785;47.388;8.538;2024-02-26T04:49:04;10.00;99.90
3542;DHT22;1785;47.388;8.538;2024-02-26T04:51:31;10.10;99.90
3542;DHT22;1785;47.388;8.538;2024-02-26T04:53:57;10.10;99.90
3542;DHT22;1785;47.388;8.538;2024-02-26T04:56:25;10.10;99.90
3542;DHT22;1785;47.388;8.538;2024-02-26T04:58:51;9.80;99.90
3542;DHT22;1785;47.388;8.538;2024-02-26T05:01:18;9.90;99.90
3542;DHT22;1785;47.388;8.538;2024-02-26T05:03:44;9.90;99.90
3542;DHT22;1785;47.388;8.538;2024-02-26T05:06:10;10.00;99.90
3542;DHT22;1785;47.388;8.538;2024-02-26T05:08:37;10.00;99.90
3542;DHT22;1785;47.388;8.538;2024-02-26T05:11:04;10.50;99.90
3542;DHT22;1785;47.388;8.538;2024-02-26T05:13:31;11.60;99.90
3542;DHT22;1785;47.388;8.538;2024-02-26T05:15:57;12.60;99.90
3542;DHT22;1785;47.388;8.538;2024-02-26T05:18:24;13.40;99.90
3542;DHT22;1785;47.388;8.538;2024-02-26T05:20:50;13.80;99.90
3542;DHT22;1785;47.388;8.538;2024-02-26T05:23:16;13.90;99.90
3542;DHT22;1785;47.388;8.538;2024-02-26T05:25:42;14.20;99.90
3542;DHT22;1785;47.388;8.538;2024-02-26T05:28:10;14.30;99.90
3542;DHT22;1785;47.388;8.538;2024-02-26T05:30:37;14.50;99.90
3542;DHT22;1785;47.388;8.538;2024-02-26T05:33:05;14.70;99.90
3542;DHT22;1785;47.388;8.538;2024-02-26T05:35:31;14.60;99.90
3542;DHT22;1785;47.388;8.538;2024-02-26T05:37:58;14.40;99.90
3542;DHT22;1785;47.388;8.538;2024-02-26T05:40:24;13.90;99.90
3542;DHT22;1785;47.388;8.538;2024-02-26T05:42:50;12.80;99.90
3542;DHT22;1785;47.388;8.538;2024-02-26T05:45:16;12.30;99.90
3542;DHT22;1785;47.388;8.538;2024-02-26T05:47:43;11.60;99.90
3542;DHT22;1785;47.388;8.538;2024-02-26T05:50:10;11.70;99.90
3542;DHT22;1785;47.388;8.538;2024-02-26T05:52:36;12.60;99.90
3542;DHT22;1785;47.388;8.538;2024-02-26T05:55:04;13.30;99.90
3542;DHT22;1785;47.388;8.538;2024-02-26T05:57:31;13.60;99.90
3542;DHT22;1785;47.388;8.538;2024-02-26T05:59:57;12.90;99.90
3542;DHT22;1785;47.388;8.538;2024-02-26T06:02:26;12.50;99.90
3542;DHT22;1785;47.388;8.538;2024-02-26T06:04:53;12.20;99.90
3542;DHT22;1785;47.388;8.538;2024-02-26T06:07:19;11.90;99.90
3542;DHT22;1785;47.388;8.538;2024-02-26T06:09:45;11.80;99.90
3542;DHT22;1785;47.388;8.538;2024-02-26T06:12:11;11.30;99.90
3542;DHT22;1785;47.388;8.538;2024-02-26T06:14:38;11.00;99.90
3542;DHT22;1785;47.388;8.538;2024-02-26T06:17:04;11.00;99.90
3542;DHT22;1785;47.388;8.538;2024-02-26T06:19:30;11.00;99.90
3542;DHT22;1785;47.388;8.538;2024-02-26T06:21:57;11.00;99.90
3542;DHT22;1785;47.388;8.538;2024-02-26T06:24:23;11.00;99.90
3542;DHT22;1785;47.388;8.538;2024-02-26T06:26:49;11.00;99.90
3542;DHT22;1785;47.388;8.538;2024-02-26T06:29:15;11.00;99.90
3542;DHT22;1785;47.388;8.538;2024-02-26T06:31:41;10.90;99.90
3542;DHT22;1785;47.388;8.538;2024-02-26T06:34:07;10.80;99.90
3542;DHT22;1785;47.388;8.538;2024-02-26T06:36:34;10.70;99.90
3542;DHT22;1785;47.388;8.538;2024-02-26T06:39:01;10.70;99.90
3542;DHT22;1785;47.388;8.538;2024-02-26T06:41:27;10.70;99.90
3542;DHT22;1785;47.388;8.538;2024-02-26T06:43:55;10.40;99.90
3542;DHT22;1785;47.388;8.538;2024-02-26T06:46:21;9.90;99.90
3542;DHT22;1785;47.388;8.538;2024-02-26T06:48:48;9.80;99.90
3542;DHT22;1785;47.388;8.538;2024-02-26T06:51:14;10.00;99.90
3542;DHT22;1785;47.388;8.538;2024-02-26T06:53:40;10.20;99.90
3542;DHT22;1785;47.388;8.538;2024-02-26T06:56:07;10.10;99.90
3542;DHT22;1785;47.388;8.538;2024-02-26T06:58:33;10.20;99.90
3542;DHT22;1785;47.388;8.538;2024-02-26T07:00:59;10.10;99.90
3542;DHT22;1785;47.388;8.538;2024-02-26T07:03:26;10.10;99.90
3542;DHT22;1785;47.388;8.538;2024-02-26T07:05:52;10.40;99.90
3542;DHT22;1785;47.388;8.538;2024-02-26T07:08:18;10.60;99.90
3542;DHT22;1785;47.388;8.538;2024-02-26T07:10:44;10.70;99.90
3542;DHT22;1785;47.388;8.538;2024-02-26T07:13:11;10.70;99.90
3542;DHT22;1785;47.388;8.538;2024-02-26T07:15:37;10.70;99.90
3542;DHT22;1785;47.388;8.538;2024-02-26T07:18:04;10.80;99.90
3542;DHT22;1785;47.388;8.538;2024-02-26T07:20:30;10.80;99.90
3542;DHT22;1785;47.388;8.538;2024-02-26T07:22:57;10.70;99.90
3542;DHT22;1785;47.388;8.538;2024-02-26T07:25:23;10.80;99.90
3542;DHT22;1785;47.388;8.538;2024-02-26T07:27:50;10.80;99.90
3542;DHT22;1785;47.388;8.538;2024-02-26T07:30:17;11.00;99.90
3542;DHT22;1785;47.388;8.538;2024-02-26T07:32:43;10.90;99.90
3542;DHT22;1785;47.388;8.538;2024-02-26T07:35:10;10.70;99.90
3542;DHT22;1785;47.388;8.538;2024-02-26T07:37:36;10.60;99.90
3542;DHT22;1785;47.388;8.538;2024-02-26T07:40:04;10.50;99.90
3542;DHT22;1785;47.388;8.538;2024-02-26T07:42:31;10.50;99.90
3542;DHT22;1785;47.388;8.538;2024-02-26T07:44:57;10.60;99.90
3542;DHT22;1785;47.388;8.538;2024-02-26T07:47:24;10.70;99.90
3542;DHT22;1785;47.388;8.538;2024-02-26T07:49:50;10.70;99.90
3542;DHT22;1785;47.388;8.538;2024-02-26T07:52:16;10.70;99.90
3542;DHT22;1785;47.388;8.538;2024-02-26T07:54:43;10.70;99.90
3542;DHT22;1785;47.388;8.538;2024-02-26T07:57:09;10.50;99.90
3542;DHT22;1785;47.388;8.538;2024-02-26T07:59:35;10.30;99.90
3542;DHT22;1785;47.388;8.538;2024-02-26T08:02:01;10.10;99.90
3542;DHT22;1785;47.388;8.538;2024-02-26T08:04:29;9.80;99.90
3542;DHT22;1785;47.388;8.538;2024-02-26T08:06:55;9.70;99.90
3542;DHT22;1785;47.388;8.538;2024-02-26T08:09:22;9.10;99.90
3542;DHT22;1785;47.388;8.538;2024-02-26T08:11:48;9.00;99.90
3542;DHT22;1785;47.388;8.538;2024-02-26T08:14:14;9.20;99.90
3542;DHT22;1785;47.388;8.538;2024-02-26T08:16:40;9.40;99.90
3542;DHT22;1785;47.388;8.538;2024-02-26T08:19:06;9.70;99.90
3542;DHT22;1785;47.388;8.538;2024-02-26T08:21:33;10.10;99.90
3542;DHT22;1785;47.388;8.538;2024-02-26T08:23:59;10.00;99.90
3542;DHT22;1785;47.388;8.538;2024-02-26T08:26:26;9.90;99.90
3542;DHT22;1785;47.388;8.538;2024-02-26T08:28:52;9.60;99.90
3542;DHT22;1785;47.388;8.538;2024-02-26T08:31:19;9.70;99.90
3542;DHT22;1785;47.388;8.538;2024-02-26T08:33:46;9.80;99.90
3542;DHT22;1785;47.388;8.538;2024-02-26T08:36:12;9.90;99.90
3542;DHT22;1785;47.388;8.538;2024-02-26T08:38:39;10.30;99.90
3542;DHT22;1785;47.388;8.538;2024-02-26T08:41:05;10.50;99.90
3542;DHT22;1785;47.388;8.538;2024-02-26T08:43:31;10.30;99.90
3542;DHT22;1785;47.388;8.538;2024-02-26T08:45:58;10.30;99.90
3542;DHT22;1785;47.388;8.538;2024-02-26T08:48:24;10.40;99.90
3542;DHT22;1785;47.388;8.538;2024-02-26T08:50:50;10.40;99.90
3542;DHT22;1785;47.388;8.538;2024-02-26T08:53:16;10.60;99.90
3542;DHT22;1785;47.388;8.538;2024-02-26T08:55:43;10.70;99.90
3542;DHT22;1785;47.388;8.538;2024-02-26T08:58:09;10.80;99.90
3542;DHT22;1785;47.388;8.538;2024-02-26T09:00:36;10.90;99.90
3542;DHT22;1785;47.388;8.538;2024-02-26T09:03:03;11.10;99.90
3542;DHT22;1785;47.388;8.538;2024-02-26T09:05:29;11.10;99.90
3542;DHT22;1785;47.388;8.538;2024-02-26T09:07:55;11.00;99.90
3542;DHT22;1785;47.388;8.538;2024-02-26T09:10:22;11.00;99.90
3542;DHT22;1785;47.388;8.538;2024-02-26T09:12:48;10.90;99.90
3542;DHT22;1785;47.388;8.538;2024-02-26T09:15:15;10.90;99.90
3542;DHT22;1785;47.388;8.538;2024-02-26T09:17:41;11.00;99.90
3542;DHT22;1785;47.388;8.538;2024-02-26T09:20:08;11.10;99.90
3542;DHT22;1785;47.388;8.538;2024-02-26T09:22:35;11.30;99.90
3542;DHT22;1785;47.388;8.538;2024-02-26T09:25:04;11.20;99.90
3542;DHT22;1785;47.388;8.538;2024-02-26T09:27:30;10.80;99.90
3542;DHT22;1785;47.388;8.538;2024-02-26T09:29:57;10.90;99.90
3542;DHT22;1785;47.388;8.538;2024-02-26T09:32:23;10.90;99.90
3542;DHT22;1785;47.388;8.538;2024-02-26T09:34:50;10.80;99.90
3542;DHT22;1785;47.388;8.538;2024-02-26T09:37:16;11.10;99.90
3542;DHT22;1785;47.388;8.538;2024-02-26T09:39:42;11.20;99.90
3542;DHT22;1785;47.388;8.538;2024-02-26T09:42:09;11.20;99.90
3542;DHT22;1785;47.388;8.538;2024-02-26T09:44:39;11.40;99.90
3542;DHT22;1785;47.388;8.538;2024-02-26T09:47:08;11.00;99.90
3542;DHT22;1785;47.388;8.538;2024-02-26T09:49:35;11.20;99.90
3542;DHT22;1785;47.388;8.538;2024-02-26T09:52:03;11.20;99.90
3542;DHT22;1785;47.388;8.538;2024-02-26T09:54:31;11.50;99.90
3542;DHT22;1785;47.388;8.538;2024-02-26T09:57:00;11.10;99.90
3542;DHT22;1785;47.388;8.538;2024-02-26T09:59:29;10.80;99.90
3542;DHT22;1785;47.388;8.538;2024-02-26T10:01:58;10.50;99.90
3542;DHT22;1785;47.388;8.538;2024-02-26T10:04:26;10.30;99.90
3542;DHT22;1785;47.388;8.538;2024-02-26T10:06:53;10.40;99.90
3542;DHT22;1785;47.388;8.538;2024-02-26T10:09:20;10.40;99.90
3542;DHT22;1785;47.388;8.538;2024-02-26T10:11:47;10.40;99.90
3542;DHT22;1785;47.388;8.538;2024-02-26T10:14:14;10.60;99.90
3542;DHT22;1785;47.388;8.538;2024-02-26T10:16:41;10.50;99.90
3542;DHT22;1785;47.388;8.538;2024-02-26T10:19:08;10.40;99.90
3542;DHT22;1785;47.388;8.538;2024-02-26T10:21:36;10.30;99.90
3542;DHT22;1785;47.388;8.538;2024-02-26T10:24:02;10.30;99.90
3542;DHT22;1785;47.388;8.538;2024-02-26T10:26:30;10.40;99.90
3542;DHT22;1785;47.388;8.538;2024-02-26T10:28:59;10.10;99.90
3542;DHT22;1785;47.388;8.538;2024-02-26T10:31:26;10.30;99.90
3542;DHT22;1785;47.388;8.538;2024-02-26T10:33:55;10.30;99.90
3542;DHT22;1785;47.388;8.538;2024-02-26T10:36:21;10.30;99.90
3542;DHT22;1785;47.388;8.538;2024-02-26T10:38:48;10.50;99.90
3542;DHT22;1785;47.388;8.538;2024-02-26T10:41:14;10.80;99.90
3542;DHT22;1785;47.388;8.538;2024-02-26T10:43:42;10.90;99.90
3542;DHT22;1785;47.388;8.538;2024-02-26T10:46:08;11.00;99.90
3542;DHT22;1785;47.388;8.538;2024-02-26T10:48:34;11.20;99.90
3542;DHT22;1785;47.388;8.538;2024-02-26T10:51:01;11.00;99.90
3542;DHT22;1785;47.388;8.538;2024-02-26T10:53:29;10.80;99.90
3542;DHT22;1785;47.388;8.538;2024-02-26T10:56:05;10.70;99.90
3542;DHT22;1785;47.388;8.538;2024-02-26T10:58:32;10.80;99.90
3542;DHT22;1785;47.388;8.538;2024-02-26T11:00:58;10.70;99.90
3542;DHT22;1785;47.388;8.538;2024-02-26T11:03:25;10.80;99.90
3542;DHT22;1785;47.388;8.538;2024-02-26T11:05:52;11.00;99.90
3542;DHT22;1785;47.388;8.538;2024-02-26T11:08:19;11.10;99.90
3542;DHT22;1785;47.388;8.538;2024-02-26T11:10:47;11.00;99.90
3542;DHT22;1785;47.388;8.538;2024-02-26T11:13:15;11.00;99.90
3542;DHT22;1785;47.388;8.538;2024-02-26T11:15:45;11.00;99.90
3542;DHT22;1785;47.388;8.538;2024-02-26T11:18:14;11.40;99.90
3542;DHT22;1785;47.388;8.538;2024-02-26T11:20:41;11.50;99.90
3542;DHT22;1785;47.388;8.538;2024-02-26T11:23:09;11.70;99.90
3542;DHT22;1785;47.388;8.538;2024-02-26T11:25:35;11.60;99.90
3542;DHT22;1785;47.388;8.538;2024-02-26T11:28:04;11.10;99.90
3542;DHT22;1785;47.388;8.538;2024-02-26T11:30:34;11.30;99.90
3542;DHT22;1785;47.388;8.538;2024-02-26T11:33:05;11.30;99.90
3542;DHT22;1785;47.388;8.538;2024-02-26T11:35:32;11.50;99.90
3542;DHT22;1785;47.388;8.538;2024-02-26T11:37:59;11.30;99.90
3542;DHT22;1785;47.388;8.538;2024-02-26T11:40:27;11.30;99.90
3542;DHT22;1785;47.388;8.538;2024-02-26T11:42:53;11.60;99.90
3542;DHT22;1785;47.388;8.538;2024-02-26T11:45:51;11.80;99.90
3542;DHT22;1785;47.388;8.538;2024-02-26T11:48:22;11.80;99.90
3542;DHT22;1785;47.388;8.538;2024-02-26T11:50:49;11.50;99.90
3542;DHT22;1785;47.388;8.538;2024-02-26T11:53:20;11.60;99.90
3542;DHT22;1785;47.388;8.538;2024-02-26T11:55:46;11.40;99.90
3542;DHT22;1785;47.388;8.538;2024-02-26T11:58:12;11.40;99.90
3542;DHT22;1785;47.388;8.538;2024-02-26T12:00:40;11.50;99.90
3542;DHT22;1785;47.388;8.538;2024-02-26T12:03:07;12.00;99.90
3542;DHT22;1785;47.388;8.538;2024-02-26T12:05:36;11.90;99.90
3542;DHT22;1785;47.388;8.538;2024-02-26T12:08:03;12.20;99.90
3542;DHT22;1785;47.388;8.538;2024-02-26T12:10:33;12.40;99.90
3542;DHT22;1785;47.388;8.538;2024-02-26T12:13:04;12.40;99.90
3542;DHT22;1785;47.388;8.538;2024-02-26T12:15:32;12.40;99.90
3542;DHT22;1785;47.388;8.538;2024-02-26T12:18:01;12.40;99.90
3542;DHT22;1785;47.388;8.538;2024-02-26T12:20:28;12.60;99.90
3542;DHT22;1785;47.388;8.538;2024-02-26T12:22:54;12.30;99.90
3542;DHT22;1785;47.388;8.538;2024-02-26T12:25:24;12.60;99.90
3542;DHT22;1785;47.388;8.538;2024-02-26T12:27:50;12.80;99.90
3542;DHT22;1785;47.388;8.538;2024-02-26T12:30:17;12.90;99.90
3542;DHT22;1785;47.388;8.538;2024-02-26T12:32:43;13.00;99.90
3542;DHT22;1785;47.388;8.538;2024-02-26T12:35:10;13.10;99.90
3542;DHT22;1785;47.388;8.538;2024-02-26T12:37:37;12.90;99.90
3542;DHT22;1785;47.388;8.538;2024-02-26T12:40:05;12.70;99.90
3542;DHT22;1785;47.388;8.538;2024-02-26T12:42:33;12.80;99.90
3542;DHT22;1785;47.388;8.538;2024-02-26T12:45:05;12.90;99.90
3542;DHT22;1785;47.388;8.538;2024-02-26T12:47:35;12.70;99.90
3542;DHT22;1785;47.388;8.538;2024-02-26T12:50:02;12.90;99.90
3542;DHT22;1785;47.388;8.538;2024-02-26T12:52:30;13.00;99.90
3542;DHT22;1785;47.388;8.538;2024-02-26T12:54:57;13.10;99.90
3542;DHT22;1785;47.388;8.538;2024-02-26T12:57:23;13.00;99.90
3542;DHT22;1785;47.388;8.538;2024-02-26T12:59:50;13.10;99.90
3542;DHT22;1785;47.388;8.538;2024-02-26T13:02:16;13.40;99.90
3542;DHT22;1785;47.388;8.538;2024-02-26T13:04:43;13.50;99.90
3542;DHT22;1785;47.388;8.538;2024-02-26T13:07:09;13.50;99.90
3542;DHT22;1785;47.388;8.538;2024-02-26T13:09:36;13.60;99.90
3542;DHT22;1785;47.388;8.538;2024-02-26T13:12:05;13.60;99.90
3542;DHT22;1785;47.388;8.538;2024-02-26T13:14:31;13.70;99.90
3542;DHT22;1785;47.388;8.538;2024-02-26T13:16:59;13.80;99.90
3542;DHT22;1785;47.388;8.538;2024-02-26T13:19:26;13.80;99.90
3542;DHT22;1785;47.388;8.538;2024-02-26T13:21:53;13.60;99.90
3542;DHT22;1785;47.388;8.538;2024-02-26T13:24:20;13.60;99.90
3542;DHT22;1785;47.388;8.538;2024-02-26T13:26:46;13.50;99.90
3542;DHT22;1785;47.388;8.538;2024-02-26T13:29:17;13.30;99.90
3542;DHT22;1785;47.388;8.538;2024-02-26T13:31:44;13.20;99.90
3542;DHT22;1785;47.388;8.538;2024-02-26T13:34:10;13.10;99.90
3542;DHT22;1785;47.388;8.538;2024-02-26T13:36:36;13.20;99.90
3542;DHT22;1785;47.388;8.538;2024-02-26T13:39:02;13.40;99.90
3542;DHT22;1785;47.388;8.538;2024-02-26T13:41:30;13.50;99.90
3542;DHT22;1785;47.388;8.538;2024-02-26T13:43:57;13.30;99.90
3542;DHT22;1785;47.388;8.538;2024-02-26T13:46:24;13.30;99.90
3542;DHT22;1785;47.388;8.538;2024-02-26T13:48:50;13.30;99.90
3542;DHT22;1785;47.388;8.538;2024-02-26T13:51:16;13.20;99.90
3542;DHT22;1785;47.388;8.538;2024-02-26T13:53:43;13.30;99.90
3542;DHT22;1785;47.388;8.538;2024-02-26T13:56:10;13.30;99.90
3542;DHT22;1785;47.388;8.538;2024-02-26T13:58:36;13.30;99.90
3542;DHT22;1785;47.388;8.538;2024-02-26T14:01:03;13.40;99.90
3542;DHT22;1785;47.388;8.538;2024-02-26T14:03:30;13.50;99.90
3542;DHT22;1785;47.388;8.538;2024-02-26T14:05:56;13.60;99.90
3542;DHT22;1785;47.388;8.538;2024-02-26T14:08:22;13.30;99.90
3542;DHT22;1785;47.388;8.538;2024-02-26T14:10:49;13.30;99.90
3542;DHT22;1785;47.388;8.538;2024-02-26T14:13:15;13.30;99.90
3542;DHT22;1785;47.388;8.538;2024-02-26T14:15:42;13.50;99.90
3542;DHT22;1785;47.388;8.538;2024-02-26T14:18:08;13.50;99.90
3542;DHT22;1785;47.388;8.538;2024-02-26T14:20:34;13.60;99.90
3542;DHT22;1785;47.388;8.538;2024-02-26T14:23:01;13.70;99.90
3542;DHT22;1785;47.388;8.538;2024-02-26T14:25:27;13.50;99.90
3542;DHT22;1785;47.388;8.538;2024-02-26T14:27:53;13.40;99.90
3542;DHT22;1785;47.388;8.538;2024-02-26T14:30:19;13.30;99.90
3542;DHT22;1785;47.388;8.538;2024-02-26T14:32:46;13.40;99.90
3542;DHT22;1785;47.388;8.538;2024-02-26T14:35:12;13.40;99.90
3542;DHT22;1785;47.388;8.538;2024-02-26T14:37:38;13.50;99.90
3542;DHT22;1785;47.388;8.538;2024-02-26T14:40:07;13.50;99.90
3542;DHT22;1785;47.388;8.538;2024-02-26T14:42:34;13.60;99.90
3542;DHT22;1785;47.388;8.538;2024-02-26T14:45:00;13.60;99.90
3542;DHT22;1785;47.388;8.538;2024-02-26T14:47:26;13.70;99.90
3542;DHT22;1785;47.388;8.538;2024-02-26T14:49:52;13.50;99.90
3542;DHT22;1785;47.388;8.538;2024-02-26T14:52:19;13.50;99.90
3542;DHT22;1785;47.388;8.538;2024-02-26T14:54:45;13.40;99.90
3542;DHT22;1785;47.388;8.538;2024-02-26T14:57:12;13.50;99.90
3542;DHT22;1785;47.388;8.538;2024-02-26T14:59:39;13.40;99.90
3542;DHT22;1785;47.388;8.538;2024-02-26T15:02:05;13.40;99.90
3542;DHT22;1785;47.388;8.538;2024-02-26T15:04:32;13.20;99.90
3542;DHT22;1785;47.388;8.538;2024-02-26T15:06:58;13.10;99.90
3542;DHT22;1785;47.388;8.538;2024-02-26T15:09:24;12.80;99.90
3542;DHT22;1785;47.388;8.538;2024-02-26T15:11:51;13.00;99.90
3542;DHT22;1785;47.388;8.538;2024-02-26T15:14:17;13.10;99.90
3542;DHT22;1785;47.388;8.538;2024-02-26T15:16:43;12.90;99.90
3542;DHT22;1785;47.388;8.538;2024-02-26T15:19:09;12.90;99.90
3542;DHT22;1785;47.388;8.538;2024-02-26T15:21:42;12.80;99.90
3542;DHT22;1785;47.388;8.538;2024-02-26T15:24:08;12.80;99.90
3542;DHT22;1785;47.388;8.538;2024-02-26T15:26:34;12.90;99.90
3542;DHT22;1785;47.388;8.538;2024-02-26T15:29:01;13.10;99.90
3542;DHT22;1785;47.388;8.538;2024-02-26T15:31:27;13.10;99.90
3542;DHT22;1785;47.388;8.538;2024-02-26T15:33:54;13.20;99.90
3542;DHT22;1785;47.388;8.538;2024-02-26T15:36:20;13.00;99.90
3542;DHT22;1785;47.388;8.538;2024-02-26T15:38:46;13.00;99.90
3542;DHT22;1785;47.388;8.538;2024-02-26T15:41:12;12.90;99.90
3542;DHT22;1785;47.388;8.538;2024-02-26T15:43:39;13.10;99.90
3542;DHT22;1785;47.388;8.538;2024-02-26T15:46:06;13.30;99.90
3542;DHT22;1785;47.388;8.538;2024-02-26T15:48:32;13.20;99.90
3542;DHT22;1785;47.388;8.538;2024-02-26T15:50:59;13.10;99.90
3542;DHT22;1785;47.388;8.538;2024-02-26T15:53:25;12.90;99.90
3542;DHT22;1785;47.388;8.538;2024-02-26T15:55:51;12.90;99.90
3542;DHT22;1785;47.388;8.538;2024-02-26T15:58:17;13.10;99.90
3542;DHT22;1785;47.388;8.538;2024-02-26T16:00:43;12.90;99.90